createdAt,value
2023-05-14T00:02:09.634Z,91.75
2023-05-14T00:04:37.747Z,91.82
2023-05-14T00:07:04.556Z,92.63
2023-05-14T00:09:32.039Z,92.92
2023-05-14T00:11:58.734Z,92.61
2023-05-14T00:14:25.417Z,93.14
2023-05-14T00:16:52.182Z,92.93
2023-05-14T00:19:19.014Z,92.73
2023-05-14T00:21:47.074Z,93.16
2023-05-14T00:24:13.856Z,92.82
2023-05-14T00:26:40.502Z,92.65
2023-05-14T00:29:07.154Z,92.45
2023-05-14T00:31:33.876Z,92.50
2023-05-14T00:34:00.588Z,91.67
2023-05-14T00:36:27.249Z,92.14
2023-05-14T00:38:55.345Z,92.25
2023-05-14T00:41:22.659Z,92.62
2023-05-14T00:43:49.316Z,92.23
2023-05-14T00:46:16.045Z,92.11
2023-05-14T00:48:42.775Z,92.37
2023-05-14T00:51:09.463Z,91.95
2023-05-14T00:53:36.243Z,92.00
2023-05-14T00:56:04.823Z,91.28
2023-05-14T00:58:31.521Z,92.15
2023-05-14T01:00:58.977Z,91.50
2023-05-14T01:03:25.744Z,91.62
2023-05-14T01:05:56.534Z,91.95
2023-05-14T01:08:28.146Z,92.15
2023-05-14T01:10:57.700Z,90.92
2023-05-14T01:13:27.753Z,90.97
2023-05-14T01:15:55.937Z,91.16
2023-05-14T01:18:22.645Z,90.91
2023-05-14T01:20:50.038Z,90.60
2023-05-14T01:23:18.120Z,90.52
2023-05-14T01:25:44.784Z,90.38
2023-05-14T01:28:13.547Z,90.17
2023-05-14T01:30:41.762Z,90.84
2023-05-14T01:33:10.343Z,90.59
2023-05-14T01:35:37.067Z,90.81
2023-05-14T01:38:04.733Z,90.52
2023-05-14T01:40:32.964Z,90.51
2023-05-14T01:42:59.815Z,89.80
2023-05-14T01:45:26.513Z,90.75
2023-05-14T01:47:53.580Z,90.71
2023-05-14T01:50:20.316Z,90.18
2023-05-14T01:52:46.997Z,90.80
2023-05-14T01:55:13.697Z,90.71
2023-05-14T01:57:41.775Z,90.02
2023-05-14T02:00:09.107Z,90.63
2023-05-14T02:02:35.868Z,91.12
2023-05-14T02:05:03.864Z,90.71
2023-05-14T02:07:31.546Z,90.25
2023-05-14T02:09:58.338Z,89.36
2023-05-14T02:12:25.158Z,89.78
2023-05-14T02:14:53.215Z,89.25
2023-05-14T02:17:19.930Z,89.38
2023-05-14T02:19:46.645Z,90.30
2023-05-14T02:22:13.404Z,89.58
2023-05-14T02:24:40.117Z,89.34
2023-05-14T02:27:06.839Z,88.86
2023-05-14T02:29:33.522Z,89.20
2023-05-14T02:32:01.537Z,89.45
2023-05-14T02:34:28.353Z,89.86
2023-05-14T02:36:54.985Z,89.03
2023-05-14T02:39:21.709Z,89.39
2023-05-14T02:41:48.373Z,90.02
2023-05-14T02:44:15.060Z,89.56
2023-05-14T02:46:41.803Z,90.26
2023-05-14T02:49:09.912Z,90.06
2023-05-14T02:51:36.627Z,91.12
2023-05-14T02:54:03.585Z,90.25
2023-05-14T02:56:30.254Z,90.53
2023-05-14T02:58:56.888Z,90.63
2023-05-14T03:01:24.145Z,90.38
2023-05-14T03:03:51.253Z,90.17
2023-05-14T03:06:19.909Z,90.74
2023-05-14T03:08:46.580Z,90.90
2023-05-14T03:11:13.262Z,90.44
2023-05-14T03:13:39.914Z,90.93
2023-05-14T03:16:07.060Z,91.29
2023-05-14T03:18:33.868Z,91.35
2023-05-14T03:21:00.513Z,90.37
2023-05-14T03:23:28.605Z,89.94
2023-05-14T03:25:55.272Z,90.45
2023-05-14T03:28:22.001Z,89.73
2023-05-14T03:30:48.721Z,90.20
2023-05-14T03:33:15.446Z,89.60
2023-05-14T03:35:42.080Z,90.26
2023-05-14T03:38:08.747Z,89.93
2023-05-14T03:40:36.898Z,89.57
2023-05-14T03:43:03.626Z,88.99
2023-05-14T03:45:30.387Z,88.95
2023-05-14T03:47:57.169Z,89.40
2023-05-14T03:50:24.120Z,88.53
2023-05-14T03:52:51.019Z,88.22
2023-05-14T03:55:17.802Z,88.27
2023-05-14T03:57:45.897Z,88.18
2023-05-14T04:00:13.494Z,87.46
2023-05-14T04:02:40.267Z,87.17
2023-05-14T04:05:07.711Z,87.57
2023-05-14T04:07:36.055Z,87.70
2023-05-14T04:10:04.368Z,87.86
2023-05-14T04:12:31.490Z,87.42
2023-05-14T04:14:59.556Z,87.48
2023-05-14T04:17:26.362Z,87.57
2023-05-14T04:19:53.092Z,86.90
2023-05-14T04:22:19.774Z,86.97
2023-05-14T04:24:46.606Z,87.41
2023-05-14T04:27:14.844Z,86.79
2023-05-14T04:29:41.457Z,87.16
2023-05-14T04:32:09.539Z,87.59
2023-05-14T04:34:36.392Z,87.25
2023-05-14T04:37:03.070Z,87.19
2023-05-14T04:39:29.763Z,86.86
2023-05-14T04:41:56.485Z,86.81
2023-05-14T04:44:23.156Z,87.40
2023-05-14T04:46:49.934Z,86.67
2023-05-14T04:49:18.041Z,86.75
2023-05-14T04:51:44.795Z,87.25
2023-05-14T04:54:11.594Z,87.21
2023-05-14T04:56:38.288Z,86.85
2023-05-14T04:59:05.138Z,86.86
2023-05-14T05:01:32.034Z,86.90
2023-05-14T05:03:58.780Z,87.13
2023-05-14T05:06:26.857Z,86.70
2023-05-14T05:08:53.563Z,86.86
2023-05-14T05:11:20.197Z,86.58
2023-05-14T05:13:46.884Z,86.54
2023-05-14T05:16:13.718Z,86.17
2023-05-14T05:18:40.496Z,85.89
2023-05-14T05:21:07.265Z,86.05
2023-05-14T05:23:35.427Z,86.27
2023-05-14T05:26:02.181Z,86.00
2023-05-14T05:28:28.840Z,86.04
2023-05-14T05:30:56.183Z,86.41
2023-05-14T05:33:22.884Z,86.29
2023-05-14T05:35:49.563Z,86.28
2023-05-14T05:38:16.320Z,85.96
2023-05-14T05:40:44.362Z,86.36
2023-05-14T05:43:11.020Z,86.59
2023-05-14T05:45:37.684Z,86.88
2023-05-14T05:48:04.970Z,87.12
2023-05-14T05:50:31.692Z,87.94
2023-05-14T05:52:58.418Z,88.55
2023-05-14T05:55:25.147Z,88.54
2023-05-14T05:57:53.236Z,88.25
2023-05-14T06:00:20.695Z,88.73
2023-05-14T06:02:47.438Z,89.27
2023-05-14T06:05:14.236Z,89.26
2023-05-14T06:07:40.937Z,89.91
2023-05-14T06:10:08.524Z,89.30
2023-05-14T06:12:35.304Z,89.90
2023-05-14T06:15:03.719Z,90.21
2023-05-14T06:17:30.419Z,90.44
2023-05-14T06:19:57.132Z,90.68
2023-05-14T06:22:23.802Z,90.57
2023-05-14T06:24:50.517Z,90.61
2023-05-14T06:27:17.308Z,90.43
2023-05-14T06:29:44.006Z,90.54
2023-05-14T06:32:12.134Z,90.42
2023-05-14T06:34:38.857Z,90.84
2023-05-14T06:37:06.025Z,90.49
2023-05-14T06:39:32.758Z,90.63
2023-05-14T06:41:59.413Z,90.37
2023-05-14T06:44:26.130Z,89.85
2023-05-14T06:46:52.770Z,90.40
2023-05-14T06:49:20.781Z,90.30
2023-05-14T06:51:47.524Z,90.11
2023-05-14T06:54:14.188Z,89.28
2023-05-14T06:56:40.836Z,89.32
2023-05-14T06:59:14.378Z,89.65
2023-05-14T07:01:41.176Z,89.06
2023-05-14T07:04:07.972Z,89.13
2023-05-14T18:03:03.004Z,99.12
2023-05-14T18:05:29.920Z,99.13
2023-05-14T18:07:56.609Z,99.34
2023-05-14T18:10:23.268Z,99.21
2023-05-14T18:12:50.028Z,99.34
2023-05-14T18:15:16.958Z,99.38
2023-05-14T18:17:43.701Z,98.70
2023-05-14T18:20:12.627Z,98.68
2023-05-14T18:22:39.325Z,99.25
2023-05-14T18:25:06.813Z,99.41
2023-05-14T18:27:33.598Z,98.99
2023-05-14T18:30:00.388Z,99.27
2023-05-14T18:32:27.119Z,99.52
2023-05-14T18:34:53.889Z,99.54
2023-05-14T18:37:22.116Z,99.69
2023-05-14T18:39:48.905Z,99.51
2023-05-14T18:42:15.648Z,99.59
2023-05-14T18:44:42.353Z,99.67
2023-05-14T18:47:08.999Z,99.63
2023-05-14T18:49:35.654Z,99.91
2023-05-14T18:52:02.373Z,99.76
2023-05-14T18:54:30.442Z,99.69
2023-05-14T18:56:57.161Z,99.95
2023-05-14T18:59:23.855Z,99.74
2023-05-14T19:01:50.699Z,99.48
2023-05-14T19:04:17.439Z,99.62
2023-05-14T19:06:44.078Z,99.88
2023-05-14T19:09:11.108Z,99.75
2023-05-14T19:11:39.129Z,99.99
2023-05-14T19:14:05.749Z,99.99
2023-05-14T19:16:32.512Z,99.98
2023-05-14T19:18:59.276Z,99.99
2023-05-14T19:21:25.994Z,99.99
2023-05-14T19:23:52.776Z,99.99
2023-05-14T19:26:19.482Z,99.99
2023-05-14T19:28:47.535Z,99.99
2023-05-14T19:31:14.323Z,99.99
2023-05-14T19:33:41.528Z,99.99
2023-05-14T19:36:08.269Z,99.99
2023-05-14T19:38:34.972Z,99.99
2023-05-14T19:41:01.678Z,99.99
2023-05-14T19:43:28.352Z,99.99
2023-05-14T19:45:56.456Z,99.99
2023-05-14T19:48:23.137Z,99.99
2023-05-14T19:50:49.823Z,99.99
2023-05-14T19:53:16.598Z,99.99
2023-05-14T19:55:43.234Z,99.99
2023-05-14T19:58:09.916Z,99.99
2023-05-14T20:00:36.637Z,99.99
2023-05-14T20:03:30.330Z,99.99
2023-05-14T20:05:57.077Z,99.99
2023-05-14T20:08:23.789Z,99.99
2023-05-14T20:10:51.682Z,99.99
2023-05-14T20:13:18.405Z,99.99
2023-05-14T20:15:45.257Z,99.99
2023-05-14T20:18:12.366Z,99.99
2023-05-14T20:20:40.621Z,99.99
2023-05-14T20:23:07.311Z,99.99
2023-05-14T20:25:34.353Z,99.99
2023-05-14T20:28:01.365Z,99.99
2023-05-14T20:30:28.050Z,99.99
2023-05-14T20:32:54.727Z,99.99
2023-05-14T20:35:21.597Z,99.38
2023-05-14T20:37:49.651Z,98.52
2023-05-14T20:40:16.467Z,97.86
2023-05-14T20:42:43.270Z,97.74
2023-05-14T20:45:10.958Z,97.15
2023-05-14T20:47:37.716Z,97.12
2023-05-14T20:50:04.943Z,97.74
2023-05-14T20:52:31.796Z,98.12
2023-05-14T20:55:01.822Z,97.73
2023-05-14T20:57:29.078Z,98.28
2023-05-14T20:59:55.718Z,98.25
2023-05-14T21:02:22.481Z,98.67
2023-05-14T21:04:49.255Z,98.65
2023-05-14T21:07:15.979Z,98.39
2023-05-14T21:09:42.708Z,98.67
2023-05-14T21:12:12.014Z,98.45
2023-05-14T21:14:38.929Z,98.78
2023-05-14T21:17:05.697Z,98.95
2023-05-14T21:19:33.731Z,99.00
2023-05-14T21:22:00.411Z,99.12
2023-05-14T21:24:27.104Z,99.38
2023-05-14T21:26:53.822Z,99.27
2023-05-14T21:29:21.888Z,99.18
2023-05-14T21:31:48.597Z,99.20
2023-05-14T21:34:15.290Z,99.32
2023-05-14T21:36:42.362Z,99.54
2023-05-14T21:39:08.991Z,99.51
2023-05-14T21:41:35.703Z,99.16
2023-05-14T21:44:02.390Z,99.38
2023-05-14T21:46:30.407Z,99.44
2023-05-14T21:48:57.228Z,99.23
2023-05-14T21:51:24.184Z,99.11
2023-05-14T21:53:50.819Z,98.62
2023-05-14T21:56:17.500Z,99.15
2023-05-14T21:58:44.446Z,99.30
2023-05-14T22:01:11.147Z,99.00
2023-05-14T22:03:39.503Z,99.48
2023-05-14T22:06:07.671Z,99.06
2023-05-14T22:08:34.339Z,99.04
2023-05-14T22:11:01.053Z,98.87
2023-05-14T22:13:27.721Z,98.68
2023-05-14T22:16:01.347Z,98.95
2023-05-14T22:18:40.047Z,99.07
2023-05-14T22:21:06.781Z,99.20
2023-05-14T22:23:33.521Z,99.09
2023-05-14T22:26:00.229Z,99.15
2023-05-14T22:28:26.935Z,99.27
2023-05-14T22:30:53.684Z,98.81
2023-05-14T22:33:20.425Z,98.83
2023-05-14T22:35:48.473Z,98.81
2023-05-14T22:38:15.149Z,99.12
2023-05-14T22:40:42.075Z,98.83
2023-05-14T22:43:08.730Z,99.26
2023-05-14T22:45:35.401Z,99.11
2023-05-14T22:48:02.529Z,99.14
2023-05-14T22:50:29.266Z,99.19
2023-05-14T22:52:57.290Z,99.47
2023-05-14T22:55:24.219Z,99.61
2023-05-14T22:57:51.086Z,99.67
2023-05-14T23:00:18.029Z,99.81
2023-05-14T23:02:44.771Z,99.81
2023-05-14T23:05:11.437Z,99.99
2023-05-14T23:07:38.133Z,99.99
2023-05-14T23:10:07.213Z,99.99
2023-05-14T23:12:33.900Z,99.99
2023-05-14T23:15:00.568Z,99.99
2023-05-14T23:17:27.404Z,99.99
2023-05-14T23:19:54.330Z,99.99
2023-05-14T23:22:21.123Z,99.99
2023-05-14T23:24:48.187Z,99.99
2023-05-14T23:27:16.515Z,99.99
2023-05-14T23:29:43.245Z,99.99
2023-05-14T23:32:10.100Z,99.99
2023-05-14T23:34:36.925Z,99.99
2023-05-14T23:37:03.675Z,99.98
2023-05-14T23:39:30.368Z,99.96
2023-05-14T23:41:57.031Z,99.99
2023-05-14T23:44:25.063Z,99.99
2023-05-14T23:46:51.793Z,99.99
2023-05-14T23:49:18.427Z,99.99
2023-05-14T23:51:45.101Z,99.99
2023-05-14T23:54:11.828Z,99.99
2023-05-14T23:56:38.594Z,99.99
2023-05-14T23:59:05.263Z,99.99
